< < Back
Terminal Aerodrome Forecast


Current Version              Previous Versions:   1  2  3  4  5  6  7  8  9  

Terminal Aerodrome Forecast

279
FTUS42 KMLB 250500
TAFDAB
TAF
KDAB 250529Z 2506/2606 28004KT P6SM FEW200
     FM251500 31005KT P6SM FEW150 SCT250
     FM252300 21003KT P6SM SCT100 BKN250=

Latest METAR

764
SAUS80 KWBC 251000
MTRDAB
METAR KDAB 250953Z 00000KT 10SM CLR 06/04 A3005 RMK AO2 SLP175
T00560044


USA.gov is the U.S. government's official web portal to all federal, state and local government web resources and services.